sensor_id;sensor_type;location;lat;lon;timestamp;temperature;humidity
25949;DHT22;13961;51.178;4.448;2023-07-31T00:01:57;17.70;99.90
25949;DHT22;13961;51.178;4.448;2023-07-31T00:04:23;17.70;99.90
25949;DHT22;13961;51.178;4.448;2023-07-31T00:06:49;17.80;99.90
25949;DHT22;13961;51.178;4.448;2023-07-31T00:09:14;17.80;99.90
25949;DHT22;13961;51.178;4.448;2023-07-31T00:11:40;17.60;99.90
25949;DHT22;13961;51.178;4.448;2023-07-31T00:14:05;17.50;99.90
25949;DHT22;13961;51.178;4.448;2023-07-31T00:16:31;17.50;99.90
25949;DHT22;13961;51.178;4.448;2023-07-31T00:18:57;17.60;99.90
25949;DHT22;13961;51.178;4.448;2023-07-31T00:21:23;17.60;99.90
25949;DHT22;13961;51.178;4.448;2023-07-31T00:23:51;17.50;99.90
25949;DHT22;13961;51.178;4.448;2023-07-31T00:26:16;17.40;99.90
25949;DHT22;13961;51.178;4.448;2023-07-31T00:28:42;17.40;99.90
25949;DHT22;13961;51.178;4.448;2023-07-31T00:31:07;17.40;99.90
25949;DHT22;13961;51.178;4.448;2023-07-31T00:33:34;17.40;99.90
25949;DHT22;13961;51.178;4.448;2023-07-31T00:36:02;17.40;99.90
25949;DHT22;13961;51.178;4.448;2023-07-31T00:38:28;17.50;99.90
25949;DHT22;13961;51.178;4.448;2023-07-31T00:40:54;17.40;99.90
25949;DHT22;13961;51.178;4.448;2023-07-31T00:43:19;17.50;99.90
25949;DHT22;13961;51.178;4.448;2023-07-31T00:45:45;17.50;99.90
25949;DHT22;13961;51.178;4.448;2023-07-31T00:48:11;17.40;99.90
25949;DHT22;13961;51.178;4.448;2023-07-31T00:50:37;17.30;99.90
25949;DHT22;13961;51.178;4.448;2023-07-31T00:53:04;17.40;99.90
25949;DHT22;13961;51.178;4.448;2023-07-31T00:55:30;17.30;99.90
25949;DHT22;13961;51.178;4.448;2023-07-31T00:57:56;17.40;99.90
25949;DHT22;13961;51.178;4.448;2023-07-31T01:00:23;17.50;99.90
25949;DHT22;13961;51.178;4.448;2023-07-31T01:02:49;17.50;99.90
25949;DHT22;13961;51.178;4.448;2023-07-31T01:05:16;17.50;99.90
25949;DHT22;13961;51.178;4.448;2023-07-31T01:07:51;17.40;99.90
25949;DHT22;13961;51.178;4.448;2023-07-31T01:10:24;17.40;99.90
25949;DHT22;13961;51.178;4.448;2023-07-31T01:12:53;17.40;99.90
25949;DHT22;13961;51.178;4.448;2023-07-31T01:15:21;17.40;99.90
25949;DHT22;13961;51.178;4.448;2023-07-31T01:17:46;17.40;99.90
25949;DHT22;13961;51.178;4.448;2023-07-31T01:20:15;17.50;99.90
25949;DHT22;13961;51.178;4.448;2023-07-31T01:29:01;17.60;99.90
25949;DHT22;13961;51.178;4.448;2023-07-31T01:31:30;17.50;99.90
25949;DHT22;13961;51.178;4.448;2023-07-31T01:33:59;17.50;99.90
25949;DHT22;13961;51.178;4.448;2023-07-31T01:36:25;17.60;99.90
25949;DHT22;13961;51.178;4.448;2023-07-31T01:38:51;17.50;99.90
25949;DHT22;13961;51.178;4.448;2023-07-31T01:41:17;17.50;99.90
25949;DHT22;13961;51.178;4.448;2023-07-31T01:43:45;17.50;99.90
25949;DHT22;13961;51.178;4.448;2023-07-31T01:46:10;17.60;99.90
25949;DHT22;13961;51.178;4.448;2023-07-31T01:48:36;17.70;99.90
25949;DHT22;13961;51.178;4.448;2023-07-31T01:51:02;17.60;99.90
25949;DHT22;13961;51.178;4.448;2023-07-31T01:53:30;17.70;99.90
25949;DHT22;13961;51.178;4.448;2023-07-31T01:55:56;17.70;99.90
25949;DHT22;13961;51.178;4.448;2023-07-31T01:58:22;17.70;99.90
25949;DHT22;13961;51.178;4.448;2023-07-31T02:00:47;17.60;99.90
25949;DHT22;13961;51.178;4.448;2023-07-31T02:03:15;17.70;99.90
25949;DHT22;13961;51.178;4.448;2023-07-31T02:05:45;17.70;99.90
25949;DHT22;13961;51.178;4.448;2023-07-31T02:08:11;17.70;99.90
25949;DHT22;13961;51.178;4.448;2023-07-31T02:10:36;17.70;99.90
25949;DHT22;13961;51.178;4.448;2023-07-31T02:13:02;17.90;99.90
25949;DHT22;13961;51.178;4.448;2023-07-31T02:15:29;17.90;99.90
25949;DHT22;13961;51.178;4.448;2023-07-31T02:17:55;17.90;99.90
25949;DHT22;13961;51.178;4.448;2023-07-31T02:20:21;17.90;99.90
25949;DHT22;13961;51.178;4.448;2023-07-31T02:22:46;17.80;99.90
25949;DHT22;13961;51.178;4.448;2023-07-31T02:25:12;17.80;99.90
25949;DHT22;13961;51.178;4.448;2023-07-31T02:27:38;17.80;99.90
25949;DHT22;13961;51.178;4.448;2023-07-31T02:30:03;17.70;99.90
25949;DHT22;13961;51.178;4.448;2023-07-31T02:32:29;17.60;99.90
25949;DHT22;13961;51.178;4.448;2023-07-31T02:34:55;17.70;99.90
25949;DHT22;13961;51.178;4.448;2023-07-31T02:37:21;17.80;99.90
25949;DHT22;13961;51.178;4.448;2023-07-31T02:39:47;17.80;99.90
25949;DHT22;13961;51.178;4.448;2023-07-31T02:42:13;17.80;99.90
25949;DHT22;13961;51.178;4.448;2023-07-31T02:44:39;17.80;99.90
25949;DHT22;13961;51.178;4.448;2023-07-31T02:47:05;17.80;99.90
25949;DHT22;13961;51.178;4.448;2023-07-31T02:49:30;17.90;99.90
25949;DHT22;13961;51.178;4.448;2023-07-31T02:51:56;17.90;99.90
25949;DHT22;13961;51.178;4.448;2023-07-31T02:54:22;17.90;99.90
25949;DHT22;13961;51.178;4.448;2023-07-31T02:56:48;17.90;99.90
25949;DHT22;13961;51.178;4.448;2023-07-31T02:59:13;17.90;99.90
25949;DHT22;13961;51.178;4.448;2023-07-31T03:01:39;17.90;99.90
25949;DHT22;13961;51.178;4.448;2023-07-31T03:04:05;18.00;99.90
25949;DHT22;13961;51.178;4.448;2023-07-31T03:06:30;18.10;99.90
25949;DHT22;13961;51.178;4.448;2023-07-31T03:08:56;18.00;99.90
25949;DHT22;13961;51.178;4.448;2023-07-31T03:11:22;18.00;99.90
25949;DHT22;13961;51.178;4.448;2023-07-31T03:13:47;17.90;99.90
25949;DHT22;13961;51.178;4.448;2023-07-31T03:16:13;17.90;99.90
25949;DHT22;13961;51.178;4.448;2023-07-31T03:18:39;18.00;99.90
25949;DHT22;13961;51.178;4.448;2023-07-31T03:21:05;18.10;99.90
25949;DHT22;13961;51.178;4.448;2023-07-31T03:23:31;18.10;99.90
25949;DHT22;13961;51.178;4.448;2023-07-31T03:26:02;18.00;99.90
25949;DHT22;13961;51.178;4.448;2023-07-31T03:28:29;18.10;99.90
25949;DHT22;13961;51.178;4.448;2023-07-31T03:30:57;18.00;99.90
25949;DHT22;13961;51.178;4.448;2023-07-31T03:33:22;18.00;99.90
25949;DHT22;13961;51.178;4.448;2023-07-31T03:35:48;18.00;99.90
25949;DHT22;13961;51.178;4.448;2023-07-31T03:38:14;18.10;99.90
25949;DHT22;13961;51.178;4.448;2023-07-31T03:40:40;18.10;99.90
25949;DHT22;13961;51.178;4.448;2023-07-31T03:43:05;18.10;99.90
25949;DHT22;13961;51.178;4.448;2023-07-31T03:45:32;18.10;99.90
25949;DHT22;13961;51.178;4.448;2023-07-31T03:47:58;18.10;99.90
25949;DHT22;13961;51.178;4.448;2023-07-31T03:50:24;18.10;99.90
25949;DHT22;13961;51.178;4.448;2023-07-31T03:52:50;18.00;99.90
25949;DHT22;13961;51.178;4.448;2023-07-31T03:55:16;18.00;99.90
25949;DHT22;13961;51.178;4.448;2023-07-31T03:57:42;18.10;99.90
25949;DHT22;13961;51.178;4.448;2023-07-31T04:00:08;18.10;99.90
25949;DHT22;13961;51.178;4.448;2023-07-31T04:02:34;18.10;99.90
25949;DHT22;13961;51.178;4.448;2023-07-31T04:04:59;18.00;99.90
25949;DHT22;13961;51.178;4.448;2023-07-31T04:07:25;18.00;99.90
25949;DHT22;13961;51.178;4.448;2023-07-31T04:09:50;17.90;99.90
25949;DHT22;13961;51.178;4.448;2023-07-31T04:12:16;17.90;99.90
25949;DHT22;13961;51.178;4.448;2023-07-31T04:14:42;17.90;99.90
25949;DHT22;13961;51.178;4.448;2023-07-31T04:17:07;17.90;99.90
25949;DHT22;13961;51.178;4.448;2023-07-31T04:19:33;17.70;99.90
25949;DHT22;13961;51.178;4.448;2023-07-31T04:21:59;17.70;99.90
25949;DHT22;13961;51.178;4.448;2023-07-31T04:24:25;17.60;99.90
25949;DHT22;13961;51.178;4.448;2023-07-31T04:26:51;17.70;99.90
25949;DHT22;13961;51.178;4.448;2023-07-31T04:29:19;17.70;99.90
25949;DHT22;13961;51.178;4.448;2023-07-31T04:31:45;17.60;99.90
25949;DHT22;13961;51.178;4.448;2023-07-31T04:34:11;17.60;99.90
25949;DHT22;13961;51.178;4.448;2023-07-31T04:36:39;17.40;99.90
25949;DHT22;13961;51.178;4.448;2023-07-31T04:39:07;17.50;99.90
25949;DHT22;13961;51.178;4.448;2023-07-31T04:41:33;17.50;99.90
25949;DHT22;13961;51.178;4.448;2023-07-31T04:43:58;17.60;99.90
25949;DHT22;13961;51.178;4.448;2023-07-31T04:46:30;17.60;99.90
25949;DHT22;13961;51.178;4.448;2023-07-31T04:48:56;17.60;99.90
25949;DHT22;13961;51.178;4.448;2023-07-31T04:51:22;17.60;99.90
25949;DHT22;13961;51.178;4.448;2023-07-31T04:53:49;17.70;99.90
25949;DHT22;13961;51.178;4.448;2023-07-31T04:56:15;17.60;99.90
25949;DHT22;13961;51.178;4.448;2023-07-31T04:58:41;17.70;99.90
25949;DHT22;13961;51.178;4.448;2023-07-31T05:01:07;17.70;99.90
25949;DHT22;13961;51.178;4.448;2023-07-31T05:03:32;17.70;99.90
25949;DHT22;13961;51.178;4.448;2023-07-31T05:05:58;17.60;99.90
25949;DHT22;13961;51.178;4.448;2023-07-31T05:08:24;17.50;99.90
25949;DHT22;13961;51.178;4.448;2023-07-31T05:10:50;17.60;99.90
25949;DHT22;13961;51.178;4.448;2023-07-31T05:13:15;17.60;99.90
25949;DHT22;13961;51.178;4.448;2023-07-31T05:15:41;17.50;99.90
25949;DHT22;13961;51.178;4.448;2023-07-31T05:18:10;17.50;99.90
25949;DHT22;13961;51.178;4.448;2023-07-31T05:20:36;17.40;99.90
25949;DHT22;13961;51.178;4.448;2023-07-31T05:23:02;17.50;99.90
25949;DHT22;13961;51.178;4.448;2023-07-31T05:25:27;17.60;99.90
25949;DHT22;13961;51.178;4.448;2023-07-31T05:27:53;17.60;99.90
25949;DHT22;13961;51.178;4.448;2023-07-31T05:30:19;17.60;99.90
25949;DHT22;13961;51.178;4.448;2023-07-31T05:32:45;17.40;99.90
25949;DHT22;13961;51.178;4.448;2023-07-31T05:35:10;17.40;99.90
25949;DHT22;13961;51.178;4.448;2023-07-31T05:37:36;17.30;99.90
25949;DHT22;13961;51.178;4.448;2023-07-31T05:40:02;17.20;99.90
25949;DHT22;13961;51.178;4.448;2023-07-31T05:42:27;17.30;99.90
25949;DHT22;13961;51.178;4.448;2023-07-31T05:44:53;17.20;99.90
25949;DHT22;13961;51.178;4.448;2023-07-31T05:47:19;17.20;99.90
25949;DHT22;13961;51.178;4.448;2023-07-31T05:49:45;17.20;99.90
25949;DHT22;13961;51.178;4.448;2023-07-31T05:52:10;17.20;99.90
25949;DHT22;13961;51.178;4.448;2023-07-31T05:54:36;17.30;99.90
25949;DHT22;13961;51.178;4.448;2023-07-31T05:57:02;17.30;99.90
25949;DHT22;13961;51.178;4.448;2023-07-31T05:59:27;17.30;99.90
25949;DHT22;13961;51.178;4.448;2023-07-31T06:01:53;17.30;99.90
25949;DHT22;13961;51.178;4.448;2023-07-31T06:04:19;17.40;99.90
25949;DHT22;13961;51.178;4.448;2023-07-31T06:06:44;17.40;99.90
25949;DHT22;13961;51.178;4.448;2023-07-31T06:09:10;17.30;99.90
25949;DHT22;13961;51.178;4.448;2023-07-31T06:11:37;17.40;99.90
25949;DHT22;13961;51.178;4.448;2023-07-31T06:14:03;17.30;99.90
25949;DHT22;13961;51.178;4.448;2023-07-31T06:16:32;17.30;99.90
25949;DHT22;13961;51.178;4.448;2023-07-31T06:18:59;17.40;99.90
25949;DHT22;13961;51.178;4.448;2023-07-31T06:21:24;17.40;99.90
25949;DHT22;13961;51.178;4.448;2023-07-31T06:23:50;17.40;99.90
25949;DHT22;13961;51.178;4.448;2023-07-31T06:26:16;17.50;99.90
25949;DHT22;13961;51.178;4.448;2023-07-31T06:28:42;17.40;99.90
25949;DHT22;13961;51.178;4.448;2023-07-31T06:31:08;17.60;99.90
25949;DHT22;13961;51.178;4.448;2023-07-31T06:33:34;17.70;99.90
25949;DHT22;13961;51.178;4.448;2023-07-31T06:36:01;17.90;99.90
25949;DHT22;13961;51.178;4.448;2023-07-31T06:38:28;17.90;99.90
25949;DHT22;13961;51.178;4.448;2023-07-31T06:40:54;18.00;99.90
25949;DHT22;13961;51.178;4.448;2023-07-31T06:43:19;18.00;99.90
25949;DHT22;13961;51.178;4.448;2023-07-31T06:45:46;18.00;99.90
25949;DHT22;13961;51.178;4.448;2023-07-31T06:48:14;18.20;99.90
25949;DHT22;13961;51.178;4.448;2023-07-31T06:50:41;18.20;99.90
25949;DHT22;13961;51.178;4.448;2023-07-31T06:53:07;18.30;99.90
25949;DHT22;13961;51.178;4.448;2023-07-31T06:55:33;18.30;99.90
25949;DHT22;13961;51.178;4.448;2023-07-31T06:58:00;18.30;99.90
25949;DHT22;13961;51.178;4.448;2023-07-31T07:00:27;18.40;99.90
25949;DHT22;13961;51.178;4.448;2023-07-31T07:02:54;18.40;99.90
25949;DHT22;13961;51.178;4.448;2023-07-31T07:05:20;18.40;99.90
25949;DHT22;13961;51.178;4.448;2023-07-31T07:07:49;18.20;99.90
25949;DHT22;13961;51.178;4.448;2023-07-31T07:10:16;18.20;99.90
25949;DHT22;13961;51.178;4.448;2023-07-31T07:12:45;18.10;99.90
25949;DHT22;13961;51.178;4.448;2023-07-31T07:15:14;18.10;99.90
25949;DHT22;13961;51.178;4.448;2023-07-31T07:17:39;18.10;99.90
25949;DHT22;13961;51.178;4.448;2023-07-31T07:20:06;18.20;99.90
25949;DHT22;13961;51.178;4.448;2023-07-31T07:22:32;18.20;99.90
25949;DHT22;13961;51.178;4.448;2023-07-31T07:24:59;18.10;99.90
25949;DHT22;13961;51.178;4.448;2023-07-31T07:27:25;18.10;99.90
25949;DHT22;13961;51.178;4.448;2023-07-31T07:29:52;18.20;99.90
25949;DHT22;13961;51.178;4.448;2023-07-31T07:32:19;18.30;99.90
25949;DHT22;13961;51.178;4.448;2023-07-31T07:34:44;18.40;99.90
25949;DHT22;13961;51.178;4.448;2023-07-31T07:37:12;18.30;99.90
25949;DHT22;13961;51.178;4.448;2023-07-31T07:39:38;18.20;99.90
25949;DHT22;13961;51.178;4.448;2023-07-31T07:42:03;18.30;99.90
25949;DHT22;13961;51.178;4.448;2023-07-31T07:44:29;18.40;99.90
25949;DHT22;13961;51.178;4.448;2023-07-31T07:46:56;18.30;99.90
25949;DHT22;13961;51.178;4.448;2023-07-31T07:49:23;18.50;99.90
25949;DHT22;13961;51.178;4.448;2023-07-31T07:51:50;18.50;99.90
25949;DHT22;13961;51.178;4.448;2023-07-31T07:54:17;18.60;99.90
25949;DHT22;13961;51.178;4.448;2023-07-31T07:56:45;18.70;99.90
25949;DHT22;13961;51.178;4.448;2023-07-31T07:59:11;18.80;99.90
25949;DHT22;13961;51.178;4.448;2023-07-31T08:01:37;18.90;99.90
25949;DHT22;13961;51.178;4.448;2023-07-31T08:04:03;19.00;99.90
25949;DHT22;13961;51.178;4.448;2023-07-31T08:06:28;19.20;99.90
25949;DHT22;13961;51.178;4.448;2023-07-31T08:08:56;19.40;99.90
25949;DHT22;13961;51.178;4.448;2023-07-31T08:11:22;19.90;99.90
25949;DHT22;13961;51.178;4.448;2023-07-31T08:13:49;20.00;99.90
25949;DHT22;13961;51.178;4.448;2023-07-31T08:16:15;20.10;99.90
25949;DHT22;13961;51.178;4.448;2023-07-31T08:18:42;20.30;99.90
25949;DHT22;13961;51.178;4.448;2023-07-31T08:21:08;20.00;99.90
25949;DHT22;13961;51.178;4.448;2023-07-31T08:23:35;19.70;99.90
25949;DHT22;13961;51.178;4.448;2023-07-31T08:26:00;19.60;99.90
25949;DHT22;13961;51.178;4.448;2023-07-31T08:28:26;19.70;99.90
25949;DHT22;13961;51.178;4.448;2023-07-31T08:30:52;19.50;99.90
25949;DHT22;13961;51.178;4.448;2023-07-31T08:33:17;19.40;99.90
25949;DHT22;13961;51.178;4.448;2023-07-31T08:35:43;19.40;99.90
25949;DHT22;13961;51.178;4.448;2023-07-31T08:38:09;19.60;99.90
25949;DHT22;13961;51.178;4.448;2023-07-31T08:40:37;19.70;99.90
25949;DHT22;13961;51.178;4.448;2023-07-31T08:43:04;19.80;99.90
25949;DHT22;13961;51.178;4.448;2023-07-31T08:45:30;19.80;99.90
25949;DHT22;13961;51.178;4.448;2023-07-31T08:47:57;19.60;99.90
25949;DHT22;13961;51.178;4.448;2023-07-31T08:50:24;19.70;99.90
25949;DHT22;13961;51.178;4.448;2023-07-31T08:52:50;19.50;99.90
25949;DHT22;13961;51.178;4.448;2023-07-31T08:55:16;19.40;99.90
25949;DHT22;13961;51.178;4.448;2023-07-31T08:57:42;19.60;99.90
25949;DHT22;13961;51.178;4.448;2023-07-31T09:00:10;19.70;99.90
25949;DHT22;13961;51.178;4.448;2023-07-31T09:02:57;19.80;99.90
25949;DHT22;13961;51.178;4.448;2023-07-31T09:05:26;19.90;99.90
25949;DHT22;13961;51.178;4.448;2023-07-31T09:07:53;19.90;99.90
25949;DHT22;13961;51.178;4.448;2023-07-31T09:10:21;20.10;99.90
25949;DHT22;13961;51.178;4.448;2023-07-31T09:12:49;20.50;99.90
25949;DHT22;13961;51.178;4.448;2023-07-31T09:15:15;20.80;99.90
25949;DHT22;13961;51.178;4.448;2023-07-31T09:17:40;20.90;99.90
25949;DHT22;13961;51.178;4.448;2023-07-31T09:20:16;21.10;99.90
25949;DHT22;13961;51.178;4.448;2023-07-31T09:22:42;21.20;99.90
25949;DHT22;13961;51.178;4.448;2023-07-31T09:25:21;20.80;99.90
25949;DHT22;13961;51.178;4.448;2023-07-31T09:27:56;20.60;99.90
25949;DHT22;13961;51.178;4.448;2023-07-31T09:30:23;20.90;99.90
25949;DHT22;13961;51.178;4.448;2023-07-31T09:32:50;21.00;99.90
25949;DHT22;13961;51.178;4.448;2023-07-31T09:35:22;21.00;99.90
25949;DHT22;13961;51.178;4.448;2023-07-31T09:37:53;20.80;99.90
25949;DHT22;13961;51.178;4.448;2023-07-31T09:40:33;20.80;99.90
25949;DHT22;13961;51.178;4.448;2023-07-31T09:43:01;20.80;99.90
25949;DHT22;13961;51.178;4.448;2023-07-31T09:45:27;21.00;99.90
25949;DHT22;13961;51.178;4.448;2023-07-31T09:47:53;21.20;99.90
25949;DHT22;13961;51.178;4.448;2023-07-31T09:50:21;21.60;99.90
25949;DHT22;13961;51.178;4.448;2023-07-31T09:52:47;21.90;99.90
25949;DHT22;13961;51.178;4.448;2023-07-31T09:55:12;21.90;99.90
25949;DHT22;13961;51.178;4.448;2023-07-31T09:57:44;21.60;99.90
25949;DHT22;13961;51.178;4.448;2023-07-31T10:00:13;21.30;99.90
25949;DHT22;13961;51.178;4.448;2023-07-31T10:02:46;20.90;99.90
25949;DHT22;13961;51.178;4.448;2023-07-31T10:05:14;20.60;99.90
25949;DHT22;13961;51.178;4.448;2023-07-31T10:07:43;20.60;99.90
25949;DHT22;13961;51.178;4.448;2023-07-31T10:10:11;20.70;99.90
25949;DHT22;13961;51.178;4.448;2023-07-31T10:12:39;20.60;99.90
25949;DHT22;13961;51.178;4.448;2023-07-31T10:15:06;20.60;99.90
25949;DHT22;13961;51.178;4.448;2023-07-31T10:17:34;20.70;99.90
25949;DHT22;13961;51.178;4.448;2023-07-31T10:20:02;20.60;99.90
25949;DHT22;13961;51.178;4.448;2023-07-31T10:22:31;20.40;99.90
25949;DHT22;13961;51.178;4.448;2023-07-31T10:25:00;20.30;99.90
25949;DHT22;13961;51.178;4.448;2023-07-31T10:27:27;20.20;99.90
25949;DHT22;13961;51.178;4.448;2023-07-31T10:29:55;20.40;99.90
25949;DHT22;13961;51.178;4.448;2023-07-31T10:32:22;20.50;99.90
25949;DHT22;13961;51.178;4.448;2023-07-31T10:34:50;20.70;99.90
25949;DHT22;13961;51.178;4.448;2023-07-31T10:42:36;20.50;99.90
25949;DHT22;13961;51.178;4.448;2023-07-31T10:45:04;20.50;99.90
25949;DHT22;13961;51.178;4.448;2023-07-31T10:47:31;20.30;99.90
25949;DHT22;13961;51.178;4.448;2023-07-31T10:50:20;20.40;99.90
25949;DHT22;13961;51.178;4.448;2023-07-31T10:52:50;20.50;99.90
25949;DHT22;13961;51.178;4.448;2023-07-31T10:55:29;20.50;99.90
25949;DHT22;13961;51.178;4.448;2023-07-31T10:57:57;20.20;99.90
25949;DHT22;13961;51.178;4.448;2023-07-31T11:00:31;20.20;99.90
25949;DHT22;13961;51.178;4.448;2023-07-31T11:02:58;20.40;99.90
25949;DHT22;13961;51.178;4.448;2023-07-31T11:10:38;20.70;99.90
25949;DHT22;13961;51.178;4.448;2023-07-31T11:13:07;21.10;99.90
25949;DHT22;13961;51.178;4.448;2023-07-31T11:15:32;21.30;99.90
25949;DHT22;13961;51.178;4.448;2023-07-31T11:18:00;21.10;99.90
25949;DHT22;13961;51.178;4.448;2023-07-31T11:20:32;20.80;99.90
25949;DHT22;13961;51.178;4.448;2023-07-31T11:23:02;20.50;99.90
25949;DHT22;13961;51.178;4.448;2023-07-31T11:25:32;20.30;99.90
25949;DHT22;13961;51.178;4.448;2023-07-31T11:28:09;20.40;99.90
25949;DHT22;13961;51.178;4.448;2023-07-31T11:30:35;20.30;99.90
25949;DHT22;13961;51.178;4.448;2023-07-31T11:33:05;20.10;99.90
25949;DHT22;13961;51.178;4.448;2023-07-31T11:35:33;20.40;99.90
25949;DHT22;13961;51.178;4.448;2023-07-31T11:38:00;20.50;99.90
25949;DHT22;13961;51.178;4.448;2023-07-31T11:40:26;20.80;99.90
25949;DHT22;13961;51.178;4.448;2023-07-31T11:42:58;20.90;99.90
25949;DHT22;13961;51.178;4.448;2023-07-31T11:45:30;20.80;99.90
25949;DHT22;13961;51.178;4.448;2023-07-31T11:47:56;20.90;99.90
25949;DHT22;13961;51.178;4.448;2023-07-31T11:50:23;20.80;99.90
25949;DHT22;13961;51.178;4.448;2023-07-31T11:52:59;20.80;99.90
25949;DHT22;13961;51.178;4.448;2023-07-31T11:55:26;20.70;99.90
25949;DHT22;13961;51.178;4.448;2023-07-31T11:57:53;20.70;99.90
25949;DHT22;13961;51.178;4.448;2023-07-31T12:00:20;20.70;99.90
25949;DHT22;13961;51.178;4.448;2023-07-31T12:02:47;20.50;99.90
25949;DHT22;13961;51.178;4.448;2023-07-31T12:05:13;20.80;99.90
25949;DHT22;13961;51.178;4.448;2023-07-31T12:07:45;21.10;99.90
25949;DHT22;13961;51.178;4.448;2023-07-31T12:10:33;21.00;99.90
25949;DHT22;13961;51.178;4.448;2023-07-31T12:13:08;20.90;99.90
25949;DHT22;13961;51.178;4.448;2023-07-31T12:15:40;21.10;99.90
25949;DHT22;13961;51.178;4.448;2023-07-31T12:18:11;21.70;99.90
25949;DHT22;13961;51.178;4.448;2023-07-31T12:20:48;22.40;99.90
25949;DHT22;13961;51.178;4.448;2023-07-31T12:23:22;22.10;99.90
25949;DHT22;13961;51.178;4.448;2023-07-31T12:28:44;22.00;99.90
25949;DHT22;13961;51.178;4.448;2023-07-31T12:31:12;22.10;99.90
25949;DHT22;13961;51.178;4.448;2023-07-31T12:33:40;22.20;99.90
25949;DHT22;13961;51.178;4.448;2023-07-31T12:36:14;22.50;99.90
25949;DHT22;13961;51.178;4.448;2023-07-31T12:38:41;22.30;99.90
25949;DHT22;13961;51.178;4.448;2023-07-31T12:41:07;21.90;99.90
25949;DHT22;13961;51.178;4.448;2023-07-31T12:43:37;21.70;99.90
25949;DHT22;13961;51.178;4.448;2023-07-31T12:46:03;21.60;99.90
25949;DHT22;13961;51.178;4.448;2023-07-31T12:48:29;21.40;99.90
25949;DHT22;13961;51.178;4.448;2023-07-31T12:50:55;21.30;99.90
25949;DHT22;13961;51.178;4.448;2023-07-31T12:53:20;21.30;99.90
25949;DHT22;13961;51.178;4.448;2023-07-31T12:55:47;21.30;99.90
25949;DHT22;13961;51.178;4.448;2023-07-31T12:58:13;21.40;99.90
25949;DHT22;13961;51.178;4.448;2023-07-31T13:00:39;21.50;99.90
25949;DHT22;13961;51.178;4.448;2023-07-31T13:03:05;21.40;99.90
25949;DHT22;13961;51.178;4.448;2023-07-31T13:05:30;21.60;99.90
25949;DHT22;13961;51.178;4.448;2023-07-31T13:07:56;21.40;99.90
25949;DHT22;13961;51.178;4.448;2023-07-31T13:10:23;21.20;99.90
25949;DHT22;13961;51.178;4.448;2023-07-31T13:12:49;21.10;99.90
25949;DHT22;13961;51.178;4.448;2023-07-31T13:15:15;21.10;99.90
25949;DHT22;13961;51.178;4.448;2023-07-31T13:17:41;21.20;99.90
25949;DHT22;13961;51.178;4.448;2023-07-31T13:20:07;21.30;99.90
25949;DHT22;13961;51.178;4.448;2023-07-31T13:22:33;21.30;99.90
25949;DHT22;13961;51.178;4.448;2023-07-31T13:24:58;21.30;99.90
25949;DHT22;13961;51.178;4.448;2023-07-31T13:27:25;21.10;99.90
25949;DHT22;13961;51.178;4.448;2023-07-31T13:29:51;21.00;99.90
25949;DHT22;13961;51.178;4.448;2023-07-31T13:32:18;20.70;99.90
25949;DHT22;13961;51.178;4.448;2023-07-31T13:34:45;20.50;99.90
25949;DHT22;13961;51.178;4.448;2023-07-31T13:37:11;20.50;99.90
25949;DHT22;13961;51.178;4.448;2023-07-31T13:39:37;20.40;99.90
25949;DHT22;13961;51.178;4.448;2023-07-31T13:42:03;20.40;99.90
25949;DHT22;13961;51.178;4.448;2023-07-31T13:44:32;20.40;99.90
25949;DHT22;13961;51.178;4.448;2023-07-31T13:46:57;20.30;99.90
25949;DHT22;13961;51.178;4.448;2023-07-31T13:49:23;20.30;99.90
25949;DHT22;13961;51.178;4.448;2023-07-31T13:51:49;20.10;99.90
25949;DHT22;13961;51.178;4.448;2023-07-31T13:54:15;20.00;99.90
25949;DHT22;13961;51.178;4.448;2023-07-31T13:56:41;19.90;99.90
25949;DHT22;13961;51.178;4.448;2023-07-31T13:59:07;19.80;99.90
25949;DHT22;13961;51.178;4.448;2023-07-31T14:01:33;19.60;99.90
25949;DHT22;13961;51.178;4.448;2023-07-31T14:03:59;19.70;99.90
25949;DHT22;13961;51.178;4.448;2023-07-31T14:06:24;19.80;99.90
25949;DHT22;13961;51.178;4.448;2023-07-31T14:08:50;19.80;99.90
25949;DHT22;13961;51.178;4.448;2023-07-31T14:11:16;19.80;99.90
25949;DHT22;13961;51.178;4.448;2023-07-31T14:13:41;19.70;99.90
25949;DHT22;13961;51.178;4.448;2023-07-31T14:16:07;19.70;99.90
25949;DHT22;13961;51.178;4.448;2023-07-31T14:18:33;19.80;99.90
25949;DHT22;13961;51.178;4.448;2023-07-31T14:20:58;19.60;99.90
25949;DHT22;13961;51.178;4.448;2023-07-31T14:23:24;19.60;99.90
25949;DHT22;13961;51.178;4.448;2023-07-31T14:25:51;19.70;99.90
25949;DHT22;13961;51.178;4.448;2023-07-31T14:28:16;19.60;99.90
25949;DHT22;13961;51.178;4.448;2023-07-31T14:30:42;19.40;99.90
25949;DHT22;13961;51.178;4.448;2023-07-31T14:33:09;19.40;99.90
25949;DHT22;13961;51.178;4.448;2023-07-31T14:35:35;19.40;99.90
25949;DHT22;13961;51.178;4.448;2023-07-31T14:38:01;19.60;99.90
25949;DHT22;13961;51.178;4.448;2023-07-31T14:40:27;19.40;99.90
25949;DHT22;13961;51.178;4.448;2023-07-31T14:42:53;19.30;99.90
25949;DHT22;13961;51.178;4.448;2023-07-31T14:45:19;19.20;99.90
25949;DHT22;13961;51.178;4.448;2023-07-31T14:47:44;19.20;99.90
25949;DHT22;13961;51.178;4.448;2023-07-31T14:50:10;19.10;99.90
25949;DHT22;13961;51.178;4.448;2023-07-31T14:52:36;19.10;99.90
25949;DHT22;13961;51.178;4.448;2023-07-31T14:55:02;19.20;99.90
25949;DHT22;13961;51.178;4.448;2023-07-31T14:57:28;19.10;99.90
25949;DHT22;13961;51.178;4.448;2023-07-31T14:59:53;19.00;99.90
25949;DHT22;13961;51.178;4.448;2023-07-31T15:02:19;19.00;99.90
25949;DHT22;13961;51.178;4.448;2023-07-31T15:04:45;19.10;99.90
25949;DHT22;13961;51.178;4.448;2023-07-31T15:07:10;19.10;99.90
25949;DHT22;13961;51.178;4.448;2023-07-31T15:09:36;19.00;99.90
25949;DHT22;13961;51.178;4.448;2023-07-31T15:12:02;18.90;99.90
25949;DHT22;13961;51.178;4.448;2023-07-31T15:14:28;18.80;99.90
25949;DHT22;13961;51.178;4.448;2023-07-31T15:16:56;18.70;99.90
25949;DHT22;13961;51.178;4.448;2023-07-31T15:19:22;18.80;99.90
25949;DHT22;13961;51.178;4.448;2023-07-31T15:21:49;18.80;99.90
25949;DHT22;13961;51.178;4.448;2023-07-31T15:24:14;18.80;99.90
25949;DHT22;13961;51.178;4.448;2023-07-31T15:26:40;18.70;99.90
25949;DHT22;13961;51.178;4.448;2023-07-31T15:29:08;18.80;99.90
25949;DHT22;13961;51.178;4.448;2023-07-31T15:31:45;18.80;99.90
25949;DHT22;13961;51.178;4.448;2023-07-31T15:34:11;18.80;99.90
25949;DHT22;13961;51.178;4.448;2023-07-31T15:36:37;18.80;99.90
25949;DHT22;13961;51.178;4.448;2023-07-31T15:39:03;18.80;99.90
25949;DHT22;13961;51.178;4.448;2023-07-31T15:41:29;18.80;99.90
25949;DHT22;13961;51.178;4.448;2023-07-31T15:43:55;18.80;99.90
25949;DHT22;13961;51.178;4.448;2023-07-31T15:46:21;18.80;99.90
25949;DHT22;13961;51.178;4.448;2023-07-31T15:48:47;18.80;99.90